sensor_id;sensor_type;location;lat;lon;timestamp;pressure;altitude;pressure_sealevel;temperature;humidity
19553;BME280;9420;50.876;7.012;2022-09-09T00:00:30;100411.16;;;32.14;56.86
19553;BME280;9420;50.876;7.012;2022-09-09T00:03:10;100413.81;;;31.64;55.71
19553;BME280;9420;50.876;7.012;2022-09-09T00:05:44;100406.31;;;31.95;54.50
19553;BME280;9420;50.876;7.012;2022-09-09T00:08:19;100401.13;;;31.85;54.84
19553;BME280;9420;50.876;7.012;2022-09-09T00:10:54;100398.78;;;31.97;54.72
19553;BME280;9420;50.876;7.012;2022-09-09T00:13:33;100401.44;;;31.47;54.42
19553;BME280;9420;50.876;7.012;2022-09-09T00:16:10;100395.22;;;31.67;53.59
19553;BME280;9420;50.876;7.012;2022-09-09T00:18:53;100391.56;;;32.04;53.41
19553;BME280;9420;50.876;7.012;2022-09-09T00:21:30;100395.28;;;31.88;52.74
19553;BME280;9420;50.876;7.012;2022-09-09T00:24:00;100393.88;;;32.07;52.47
19553;BME280;9420;50.876;7.012;2022-09-09T00:26:36;100392.78;;;32.37;53.21
19553;BME280;9420;50.876;7.012;2022-09-09T00:29:14;100389.41;;;31.85;53.38
19553;BME280;9420;50.876;7.012;2022-09-09T00:31:46;100396.53;;;31.86;54.22
19553;BME280;9420;50.876;7.012;2022-09-09T00:34:18;100407.25;;;32.02;52.88
19553;BME280;9420;50.876;7.012;2022-09-09T00:36:50;100400.72;;;32.53;53.93
19553;BME280;9420;50.876;7.012;2022-09-09T00:39:27;100397.94;;;32.32;53.62
19553;BME280;9420;50.876;7.012;2022-09-09T00:42:13;100399.06;;;32.02;55.50
19553;BME280;9420;50.876;7.012;2022-09-09T00:44:53;100392.38;;;32.19;55.95
19553;BME280;9420;50.876;7.012;2022-09-09T00:47:41;100397.75;;;32.13;56.78
19553;BME280;9420;50.876;7.012;2022-09-09T00:53:25;100400.25;;;32.14;57.32
19553;BME280;9420;50.876;7.012;2022-09-09T00:56:09;100398.72;;;32.26;57.39
19553;BME280;9420;50.876;7.012;2022-09-09T00:58:38;100401.22;;;32.42;56.80
19553;BME280;9420;50.876;7.012;2022-09-09T01:01:10;100401.34;;;32.34;57.07
19553;BME280;9420;50.876;7.012;2022-09-09T01:03:47;100403.06;;;32.56;56.20
19553;BME280;9420;50.876;7.012;2022-09-09T01:06:20;100405.09;;;32.33;56.46
19553;BME280;9420;50.876;7.012;2022-09-09T01:09:13;100408.66;;;32.48;56.27
19553;BME280;9420;50.876;7.012;2022-09-09T01:11:55;100405.94;;;32.34;56.61
19553;BME280;9420;50.876;7.012;2022-09-09T01:14:42;100396.06;;;32.33;57.03
19553;BME280;9420;50.876;7.012;2022-09-09T01:17:17;100403.19;;;32.48;56.37
19553;BME280;9420;50.876;7.012;2022-09-09T01:20:02;100396.72;;;32.35;57.28
19553;BME280;9420;50.876;7.012;2022-09-09T01:22:40;100399.50;;;32.56;56.19
19553;BME280;9420;50.876;7.012;2022-09-09T01:25:27;100394.56;;;32.30;56.98
19553;BME280;9420;50.876;7.012;2022-09-09T01:27:59;100390.63;;;31.97;57.43
19553;BME280;9420;50.876;7.012;2022-09-09T01:30:28;100389.31;;;32.29;56.11
19553;BME280;9420;50.876;7.012;2022-09-09T01:32:58;100396.28;;;32.31;56.24
19553;BME280;9420;50.876;7.012;2022-09-09T01:35:49;100394.81;;;32.14;55.34
19553;BME280;9420;50.876;7.012;2022-09-09T01:38:20;100398.53;;;31.77;56.58
19553;BME280;9420;50.876;7.012;2022-09-09T01:40:48;100394.19;;;31.68;56.20
19553;BME280;9420;50.876;7.012;2022-09-09T01:43:20;100400.97;;;31.58;56.64
19553;BME280;9420;50.876;7.012;2022-09-09T01:45:51;100401.81;;;31.58;57.73
19553;BME280;9420;50.876;7.012;2022-09-09T01:48:21;100402.94;;;31.64;56.88
19553;BME280;9420;50.876;7.012;2022-09-09T01:50:49;100402.25;;;31.76;57.49
19553;BME280;9420;50.876;7.012;2022-09-09T01:53:18;100408.91;;;32.03;56.10
19553;BME280;9420;50.876;7.012;2022-09-09T01:56:00;100403.47;;;32.03;56.46
19553;BME280;9420;50.876;7.012;2022-09-09T01:58:42;100408.56;;;32.06;55.73
19553;BME280;9420;50.876;7.012;2022-09-09T02:01:25;100402.34;;;32.12;56.65
19553;BME280;9420;50.876;7.012;2022-09-09T02:03:57;100402.63;;;32.17;55.48
19553;BME280;9420;50.876;7.012;2022-09-09T02:06:34;100401.63;;;32.25;56.32
19553;BME280;9420;50.876;7.012;2022-09-09T02:09:07;100401.47;;;32.11;56.02
19553;BME280;9420;50.876;7.012;2022-09-09T02:11:37;100395.41;;;32.31;56.11
19553;BME280;9420;50.876;7.012;2022-09-09T02:14:12;100394.03;;;32.20;55.63
19553;BME280;9420;50.876;7.012;2022-09-09T02:16:46;100396.72;;;31.99;56.50
19553;BME280;9420;50.876;7.012;2022-09-09T02:19:21;100405.34;;;32.17;56.15
19553;BME280;9420;50.876;7.012;2022-09-09T02:21:54;100403.66;;;32.01;57.11
19553;BME280;9420;50.876;7.012;2022-09-09T02:24:23;100400.50;;;31.98;56.81
19553;BME280;9420;50.876;7.012;2022-09-09T02:26:54;100395.59;;;32.08;56.99
19553;BME280;9420;50.876;7.012;2022-09-09T02:29:29;100401.31;;;32.13;56.68
19553;BME280;9420;50.876;7.012;2022-09-09T02:32:01;100401.47;;;32.11;56.91
19553;BME280;9420;50.876;7.012;2022-09-09T02:34:34;100407.41;;;32.15;56.80
19553;BME280;9420;50.876;7.012;2022-09-09T02:37:06;100405.25;;;32.10;56.63
19553;BME280;9420;50.876;7.012;2022-09-09T02:39:35;100396.66;;;32.28;56.18
19553;BME280;9420;50.876;7.012;2022-09-09T02:42:03;100400.09;;;32.37;55.57
19553;BME280;9420;50.876;7.012;2022-09-09T02:44:32;100391.19;;;33.75;51.86
19553;BME280;9420;50.876;7.012;2022-09-09T02:47:18;100401.22;;;32.42;55.41
19553;BME280;9420;50.876;7.012;2022-09-09T02:50:02;100392.50;;;32.32;55.03
19553;BME280;9420;50.876;7.012;2022-09-09T02:52:45;100387.19;;;32.45;55.72
19553;BME280;9420;50.876;7.012;2022-09-09T02:55:22;100390.34;;;32.63;55.41
19553;BME280;9420;50.876;7.012;2022-09-09T02:57:53;100387.88;;;32.47;55.56
19553;BME280;9420;50.876;7.012;2022-09-09T03:00:27;100383.53;;;32.53;54.90
19553;BME280;9420;50.876;7.012;2022-09-09T03:02:55;100376.47;;;32.58;55.02
19553;BME280;9420;50.876;7.012;2022-09-09T03:05:23;100374.50;;;32.73;54.86
19553;BME280;9420;50.876;7.012;2022-09-09T03:07:51;100381.19;;;32.50;55.34
19553;BME280;9420;50.876;7.012;2022-09-09T03:10:18;100372.63;;;32.53;55.75
19553;BME280;9420;50.876;7.012;2022-09-09T03:12:45;100366.47;;;32.65;55.11
19553;BME280;9420;50.876;7.012;2022-09-09T03:15:12;100367.50;;;32.64;54.30
19553;BME280;9420;50.876;7.012;2022-09-09T03:17:41;100368.66;;;32.34;54.77
19553;BME280;9420;50.876;7.012;2022-09-09T03:20:09;100379.31;;;32.50;55.62
19553;BME280;9420;50.876;7.012;2022-09-09T03:22:38;100369.09;;;32.38;54.43
19553;BME280;9420;50.876;7.012;2022-09-09T03:25:06;100369.66;;;32.12;55.65
19553;BME280;9420;50.876;7.012;2022-09-09T03:27:33;100366.47;;;32.65;53.93
19553;BME280;9420;50.876;7.012;2022-09-09T03:30:01;100378.38;;;32.43;54.71
19553;BME280;9420;50.876;7.012;2022-09-09T03:32:29;100378.09;;;32.17;54.26
19553;BME280;9420;50.876;7.012;2022-09-09T03:34:58;100374.97;;;32.56;54.22
19553;BME280;9420;50.876;7.012;2022-09-09T03:37:25;100373.72;;;32.79;52.95
19553;BME280;9420;50.876;7.012;2022-09-09T03:39:52;100381.63;;;33.23;53.57
19553;BME280;9420;50.876;7.012;2022-09-09T03:42:21;100378.41;;;32.64;53.97
19553;BME280;9420;50.876;7.012;2022-09-09T03:44:48;100379.69;;;32.47;54.47
19553;BME280;9420;50.876;7.012;2022-09-09T03:47:17;100379.44;;;32.63;54.66
19553;BME280;9420;50.876;7.012;2022-09-09T03:49:45;100379.56;;;32.76;53.58
19553;BME280;9420;50.876;7.012;2022-09-09T03:52:14;100375.91;;;32.91;53.00
19553;BME280;9420;50.876;7.012;2022-09-09T03:54:41;100380.22;;;32.57;53.28
19553;BME280;9420;50.876;7.012;2022-09-09T03:57:09;100371.63;;;32.81;53.08
19553;BME280;9420;50.876;7.012;2022-09-09T03:59:36;100368.94;;;32.60;53.79
19553;BME280;9420;50.876;7.012;2022-09-09T04:02:04;100376.28;;;32.45;54.28
19553;BME280;9420;50.876;7.012;2022-09-09T04:04:31;100376.19;;;32.74;54.26
19553;BME280;9420;50.876;7.012;2022-09-09T04:06:58;100372.91;;;32.43;54.22
19553;BME280;9420;50.876;7.012;2022-09-09T04:09:27;100372.72;;;32.59;54.52
19553;BME280;9420;50.876;7.012;2022-09-09T04:11:54;100362.75;;;32.73;53.56
19553;BME280;9420;50.876;7.012;2022-09-09T04:14:21;100357.06;;;32.96;53.51
19553;BME280;9420;50.876;7.012;2022-09-09T04:16:48;100363.09;;;33.12;52.51
19553;BME280;9420;50.876;7.012;2022-09-09T04:19:15;100358.53;;;32.70;53.16
19553;BME280;9420;50.876;7.012;2022-09-09T04:21:42;100356.47;;;32.51;53.55
19553;BME280;9420;50.876;7.012;2022-09-09T04:24:10;100370.94;;;32.16;54.05
19553;BME280;9420;50.876;7.012;2022-09-09T04:26:38;100361.81;;;32.59;53.68
19553;BME280;9420;50.876;7.012;2022-09-09T04:29:05;100362.19;;;32.56;53.57
19553;BME280;9420;50.876;7.012;2022-09-09T04:31:34;100368.13;;;32.45;53.83
19553;BME280;9420;50.876;7.012;2022-09-09T04:34:01;100376.97;;;32.47;53.26
19553;BME280;9420;50.876;7.012;2022-09-09T04:36:31;100377.38;;;32.65;53.67
19553;BME280;9420;50.876;7.012;2022-09-09T04:38:58;100386.44;;;32.51;54.26
19553;BME280;9420;50.876;7.012;2022-09-09T04:41:27;100379.19;;;32.23;52.88
19553;BME280;9420;50.876;7.012;2022-09-09T04:43:56;100382.03;;;32.71;53.67
19553;BME280;9420;50.876;7.012;2022-09-09T04:46:24;100387.50;;;32.50;54.23
19553;BME280;9420;50.876;7.012;2022-09-09T04:48:52;100390.97;;;32.44;54.70
19553;BME280;9420;50.876;7.012;2022-09-09T04:51:19;100383.09;;;32.35;55.19
19553;BME280;9420;50.876;7.012;2022-09-09T04:53:46;100378.88;;;32.32;54.42
19553;BME280;9420;50.876;7.012;2022-09-09T04:56:17;100389.56;;;32.48;55.08
19553;BME280;9420;50.876;7.012;2022-09-09T04:58:45;100388.66;;;32.62;54.28
19553;BME280;9420;50.876;7.012;2022-09-09T05:01:16;100393.97;;;32.49;54.89
19553;BME280;9420;50.876;7.012;2022-09-09T05:03:44;100392.03;;;32.64;53.68
19553;BME280;9420;50.876;7.012;2022-09-09T05:06:14;100395.13;;;32.40;54.57
19553;BME280;9420;50.876;7.012;2022-09-09T05:08:43;100388.94;;;32.46;54.11
19553;BME280;9420;50.876;7.012;2022-09-09T05:11:16;100393.66;;;32.59;53.90
19553;BME280;9420;50.876;7.012;2022-09-09T05:13:45;100375.78;;;32.77;53.24
19553;BME280;9420;50.876;7.012;2022-09-09T05:16:14;100391.91;;;32.51;54.66
19553;BME280;9420;50.876;7.012;2022-09-09T05:18:42;100379.03;;;32.66;52.43
19553;BME280;9420;50.876;7.012;2022-09-09T05:21:10;100384.34;;;32.96;52.25
19553;BME280;9420;50.876;7.012;2022-09-09T05:23:37;100379.16;;;32.79;52.56
19553;BME280;9420;50.876;7.012;2022-09-09T05:26:05;100389.88;;;32.81;52.75
19553;BME280;9420;50.876;7.012;2022-09-09T05:28:35;100389.88;;;32.60;53.33
19553;BME280;9420;50.876;7.012;2022-09-09T05:31:05;100384.78;;;32.50;53.46
19553;BME280;9420;50.876;7.012;2022-09-09T05:33:35;100392.50;;;32.32;53.46
19553;BME280;9420;50.876;7.012;2022-09-09T05:36:06;100388.66;;;31.62;53.75
19553;BME280;9420;50.876;7.012;2022-09-09T05:38:35;100394.56;;;31.94;53.63
19553;BME280;9420;50.876;7.012;2022-09-09T05:41:03;100394.06;;;31.32;54.04
19553;BME280;9420;50.876;7.012;2022-09-09T05:43:30;100396.66;;;32.28;53.59
19553;BME280;9420;50.876;7.012;2022-09-09T05:46:04;100394.03;;;32.20;53.77
19553;BME280;9420;50.876;7.012;2022-09-09T05:48:34;100400.75;;;31.88;55.01
19553;BME280;9420;50.876;7.012;2022-09-09T05:51:04;100394.56;;;32.66;52.25
19553;BME280;9420;50.876;7.012;2022-09-09T05:53:32;100388.75;;;32.33;52.91
19553;BME280;9420;50.876;7.012;2022-09-09T05:56:03;100393.03;;;32.84;51.62
19553;BME280;9420;50.876;7.012;2022-09-09T05:58:30;100400.59;;;31.46;53.30
19553;BME280;9420;50.876;7.012;2022-09-09T06:01:03;100407.59;;;32.70;51.65
19553;BME280;9420;50.876;7.012;2022-09-09T06:03:31;100399.91;;;32.17;53.24
19553;BME280;9420;50.876;7.012;2022-09-09T06:06:01;100403.00;;;31.85;53.37
19553;BME280;9420;50.876;7.012;2022-09-09T06:08:31;100408.25;;;32.51;52.45
19553;BME280;9420;50.876;7.012;2022-09-09T06:11:02;100398.50;;;32.84;50.29
19553;BME280;9420;50.876;7.012;2022-09-09T06:13:30;100396.03;;;34.13;48.61
19553;BME280;9420;50.876;7.012;2022-09-09T06:15:58;100396.78;;;33.94;48.20
19553;BME280;9420;50.876;7.012;2022-09-09T06:18:26;100399.63;;;32.69;49.94
19553;BME280;9420;50.876;7.012;2022-09-09T06:20:55;100397.47;;;32.64;50.60
19553;BME280;9420;50.876;7.012;2022-09-09T06:23:24;100404.59;;;32.08;52.23
19553;BME280;9420;50.876;7.012;2022-09-09T06:25:52;100413.06;;;32.49;51.44
19553;BME280;9420;50.876;7.012;2022-09-09T06:28:27;100402.09;;;32.28;52.09
19553;BME280;9420;50.876;7.012;2022-09-09T06:30:58;100397.41;;;32.22;52.10
19553;BME280;9420;50.876;7.012;2022-09-09T06:33:26;100399.84;;;31.96;51.51
19553;BME280;9420;50.876;7.012;2022-09-09T06:35:54;100407.88;;;32.54;52.01
19553;BME280;9420;50.876;7.012;2022-09-09T06:38:25;100407.34;;;31.65;52.79
19553;BME280;9420;50.876;7.012;2022-09-09T06:40:52;100405.72;;;32.14;51.89
19553;BME280;9420;50.876;7.012;2022-09-09T06:43:21;100409.78;;;31.74;52.84
19553;BME280;9420;50.876;7.012;2022-09-09T06:45:56;100400.94;;;31.87;52.17
19553;BME280;9420;50.876;7.012;2022-09-09T06:48:25;100404.88;;;32.49;51.46
19553;BME280;9420;50.876;7.012;2022-09-09T06:51:02;100393.81;;;32.36;51.50
19553;BME280;9420;50.876;7.012;2022-09-09T06:53:32;100399.41;;;32.49;50.52
19553;BME280;9420;50.876;7.012;2022-09-09T06:56:00;100400.34;;;32.56;51.12
19553;BME280;9420;50.876;7.012;2022-09-09T06:58:28;100394.16;;;33.11;49.16
19553;BME280;9420;50.876;7.012;2022-09-09T07:01:03;100398.25;;;32.58;50.34
19553;BME280;9420;50.876;7.012;2022-09-09T07:03:30;100380.41;;;34.68;46.28
19553;BME280;9420;50.876;7.012;2022-09-09T07:05:57;100382.59;;;33.43;47.76
19553;BME280;9420;50.876;7.012;2022-09-09T07:08:25;100388.66;;;32.62;46.17
19553;BME280;9420;50.876;7.012;2022-09-09T07:10:54;100385.66;;;33.00;47.57
19553;BME280;9420;50.876;7.012;2022-09-09T07:13:24;100370.41;;;33.74;45.47
19553;BME280;9420;50.876;7.012;2022-09-09T07:15:51;100384.84;;;33.06;45.89
19553;BME280;9420;50.876;7.012;2022-09-09T07:18:19;100383.34;;;33.31;45.41
19553;BME280;9420;50.876;7.012;2022-09-09T07:20:53;100381.25;;;33.26;45.72
19553;BME280;9420;50.876;7.012;2022-09-09T07:23:22;100385.25;;;33.58;45.90
19553;BME280;9420;50.876;7.012;2022-09-09T07:25:49;100392.09;;;34.35;44.52
19553;BME280;9420;50.876;7.012;2022-09-09T07:28:19;100388.22;;;33.63;45.10
19553;BME280;9420;50.876;7.012;2022-09-09T07:30:54;100396.16;;;33.58;44.24
19553;BME280;9420;50.876;7.012;2022-09-09T07:33:21;100396.78;;;33.94;45.23
19553;BME280;9420;50.876;7.012;2022-09-09T07:35:48;100399.44;;;33.47;44.73
19553;BME280;9420;50.876;7.012;2022-09-09T07:38:15;100407.75;;;32.62;44.10
19553;BME280;9420;50.876;7.012;2022-09-09T07:40:42;100419.94;;;32.87;45.12
19553;BME280;9420;50.876;7.012;2022-09-09T07:43:09;100410.34;;;34.15;42.51
19553;BME280;9420;50.876;7.012;2022-09-09T07:45:38;100414.44;;;33.30;43.80
19553;BME280;9420;50.876;7.012;2022-09-09T07:48:06;100418.50;;;33.13;44.89
19553;BME280;9420;50.876;7.012;2022-09-09T07:50:33;100423.66;;;32.80;45.59
19553;BME280;9420;50.876;7.012;2022-09-09T07:53:00;100423.50;;;31.95;44.02
19553;BME280;9420;50.876;7.012;2022-09-09T07:55:28;100431.88;;;31.94;44.68
19553;BME280;9420;50.876;7.012;2022-09-09T07:57:56;100434.53;;;32.23;44.38
19553;BME280;9420;50.876;7.012;2022-09-09T08:00:23;100433.72;;;31.50;45.34
19553;BME280;9420;50.876;7.012;2022-09-09T08:02:51;100441.34;;;31.54;45.25
19553;BME280;9420;50.876;7.012;2022-09-09T08:05:19;100437.78;;;31.16;45.50
19553;BME280;9420;50.876;7.012;2022-09-09T08:07:49;100431.94;;;31.19;45.04
19553;BME280;9420;50.876;7.012;2022-09-09T08:10:16;100447.59;;;31.55;44.37
19553;BME280;9420;50.876;7.012;2022-09-09T08:12:44;100441.22;;;31.48;44.07
19553;BME280;9420;50.876;7.012;2022-09-09T08:15:11;100433.16;;;31.69;43.98
19553;BME280;9420;50.876;7.012;2022-09-09T08:17:39;100446.44;;;31.34;44.09
19553;BME280;9420;50.876;7.012;2022-09-09T08:20:08;100438.31;;;32.58;43.14
19553;BME280;9420;50.876;7.012;2022-09-09T08:22:38;100431.47;;;33.59;40.40
19553;BME280;9420;50.876;7.012;2022-09-09T08:25:06;100443.69;;;32.72;42.51
19553;BME280;9420;50.876;7.012;2022-09-09T08:27:34;100430.91;;;33.43;40.86
19553;BME280;9420;50.876;7.012;2022-09-09T08:30:01;100429.81;;;33.65;41.11
19553;BME280;9420;50.876;7.012;2022-09-09T08:32:28;100428.09;;;33.57;40.47
19553;BME280;9420;50.876;7.012;2022-09-09T08:34:55;100429.75;;;33.31;40.12
19553;BME280;9420;50.876;7.012;2022-09-09T08:37:24;100437.09;;;32.10;41.21
19553;BME280;9420;50.876;7.012;2022-09-09T08:39:52;100435.34;;;32.74;40.90
19553;BME280;9420;50.876;7.012;2022-09-09T08:42:41;100438.81;;;33.59;40.88
19553;BME280;9420;50.876;7.012;2022-09-09T08:45:25;100433.47;;;34.19;40.63
19553;BME280;9420;50.876;7.012;2022-09-09T08:48:21;100428.72;;;33.32;39.09
19553;BME280;9420;50.876;7.012;2022-09-09T08:50:56;100432.91;;;33.96;39.38
19553;BME280;9420;50.876;7.012;2022-09-09T08:53:38;100419.50;;;33.60;38.27
19553;BME280;9420;50.876;7.012;2022-09-09T08:56:12;100434.19;;;33.32;38.58
19553;BME280;9420;50.876;7.012;2022-09-09T08:58:47;100436.97;;;33.38;38.32
19553;BME280;9420;50.876;7.012;2022-09-09T09:01:36;100449.56;;;32.69;39.46
19553;BME280;9420;50.876;7.012;2022-09-09T09:04:25;100440.75;;;33.65;38.02
19553;BME280;9420;50.876;7.012;2022-09-09T09:07:11;100441.47;;;34.14;37.93
19553;BME280;9420;50.876;7.012;2022-09-09T09:09:52;100444.41;;;34.19;37.37
19553;BME280;9420;50.876;7.012;2022-09-09T09:12:28;100435.19;;;34.33;38.07
19553;BME280;9420;50.876;7.012;2022-09-09T09:14:55;100436.47;;;34.37;37.02
19553;BME280;9420;50.876;7.012;2022-09-09T09:17:28;100427.63;;;34.35;37.01
19553;BME280;9420;50.876;7.012;2022-09-09T09:19:57;100435.78;;;34.96;36.84
19553;BME280;9420;50.876;7.012;2022-09-09T09:22:40;100440.44;;;35.02;37.07
19553;BME280;9420;50.876;7.012;2022-09-09T09:25:17;100438.72;;;33.80;38.92
19553;BME280;9420;50.876;7.012;2022-09-09T09:27:57;100439.75;;;33.45;39.37
19553;BME280;9420;50.876;7.012;2022-09-09T09:30:31;100459.16;;;32.65;39.73
19553;BME280;9420;50.876;7.012;2022-09-09T09:33:06;100452.06;;;32.71;39.26
19553;BME280;9420;50.876;7.012;2022-09-09T09:35:36;100455.13;;;32.82;40.14
19553;BME280;9420;50.876;7.012;2022-09-09T09:38:17;100462.53;;;32.67;40.67
19553;BME280;9420;50.876;7.012;2022-09-09T09:40:52;100465.28;;;31.88;41.82
19553;BME280;9420;50.876;7.012;2022-09-09T09:43:27;100463.53;;;32.31;41.16
19553;BME280;9420;50.876;7.012;2022-09-09T09:45:55;100464.34;;;32.10;40.67
19553;BME280;9420;50.876;7.012;2022-09-09T09:48:25;100454.75;;;31.85;41.01
19553;BME280;9420;50.876;7.012;2022-09-09T09:50:56;100465.00;;;32.62;40.77
19553;BME280;9420;50.876;7.012;2022-09-09T09:53:27;100450.53;;;33.53;38.32
19553;BME280;9420;50.876;7.012;2022-09-09T09:55:59;100446.38;;;33.36;39.25
19553;BME280;9420;50.876;7.012;2022-09-09T09:58:32;100445.50;;;35.18;38.63
19553;BME280;9420;50.876;7.012;2022-09-09T10:01:00;100442.66;;;34.05;37.82
19553;BME280;9420;50.876;7.012;2022-09-09T10:03:30;100436.13;;;33.38;38.34
19553;BME280;9420;50.876;7.012;2022-09-09T10:05:57;100445.72;;;33.55;37.77
19553;BME280;9420;50.876;7.012;2022-09-09T10:08:26;100434.78;;;34.30;37.65
19553;BME280;9420;50.876;7.012;2022-09-09T10:11:30;100432.41;;;35.59;37.04
19553;BME280;9420;50.876;7.012;2022-09-09T10:14:14;100428.66;;;35.21;35.53
19553;BME280;9420;50.876;7.012;2022-09-09T10:17:02;100432.47;;;33.31;37.54
19553;BME280;9420;50.876;7.012;2022-09-09T10:19:34;100445.22;;;33.45;37.43
19553;BME280;9420;50.876;7.012;2022-09-09T10:22:18;100433.91;;;34.29;36.22
19553;BME280;9420;50.876;7.012;2022-09-09T10:25:20;100437.59;;;33.13;37.05
19553;BME280;9420;50.876;7.012;2022-09-09T10:28:13;100443.63;;;32.87;37.76
19553;BME280;9420;50.876;7.012;2022-09-09T10:30:56;100441.69;;;32.81;38.89
19553;BME280;9420;50.876;7.012;2022-09-09T10:33:36;100441.53;;;31.96;38.34
19553;BME280;9420;50.876;7.012;2022-09-09T10:36:14;100437.59;;;32.92;38.81
19553;BME280;9420;50.876;7.012;2022-09-09T10:38:47;100434.53;;;33.50;37.65
19553;BME280;9420;50.876;7.012;2022-09-09T10:41:26;100426.94;;;33.18;37.94
19553;BME280;9420;50.876;7.012;2022-09-09T10:44:29;100426.81;;;33.94;38.98
19553;BME280;9420;50.876;7.012;2022-09-09T10:47:25;100428.56;;;33.68;37.79
19553;BME280;9420;50.876;7.012;2022-09-09T10:50:22;100420.81;;;33.37;37.80
19553;BME280;9420;50.876;7.012;2022-09-09T10:53:02;100423.59;;;35.18;36.82
19553;BME280;9420;50.876;7.012;2022-09-09T10:55:40;100417.66;;;34.82;35.55
19553;BME280;9420;50.876;7.012;2022-09-09T10:58:16;100415.56;;;35.30;35.83
19553;BME280;9420;50.876;7.012;2022-09-09T11:00:53;100422.78;;;33.84;36.46
19553;BME280;9420;50.876;7.012;2022-09-09T11:03:28;100419.28;;;34.50;35.94
19553;BME280;9420;50.876;7.012;2022-09-09T11:06:02;100416.25;;;36.15;34.66
19553;BME280;9420;50.876;7.012;2022-09-09T11:08:35;100422.59;;;36.09;33.86
19553;BME280;9420;50.876;7.012;2022-09-09T11:11:12;100414.31;;;35.39;33.91
19553;BME280;9420;50.876;7.012;2022-09-09T11:13:47;100415.91;;;33.53;35.91
19553;BME280;9420;50.876;7.012;2022-09-09T11:16:27;100413.75;;;34.30;35.62
19553;BME280;9420;50.876;7.012;2022-09-09T11:19:05;100437.44;;;33.76;35.47
19553;BME280;9420;50.876;7.012;2022-09-09T11:21:43;100422.41;;;33.93;35.83
19553;BME280;9420;50.876;7.012;2022-09-09T11:24:19;100414.34;;;33.17;35.99
19553;BME280;9420;50.876;7.012;2022-09-09T11:26:54;100412.56;;;33.03;35.93
19553;BME280;9420;50.876;7.012;2022-09-09T11:33:31;100401.78;;;33.84;35.16
19553;BME280;9420;50.876;7.012;2022-09-09T11:36:26;100400.03;;;33.42;36.13
19553;BME280;9420;50.876;7.012;2022-09-09T11:39:12;100401.22;;;34.56;34.36
19553;BME280;9420;50.876;7.012;2022-09-09T11:41:46;100399.03;;;34.31;34.54
19553;BME280;9420;50.876;7.012;2022-09-09T11:44:21;100405.06;;;35.07;34.22
19553;BME280;9420;50.876;7.012;2022-09-09T11:46:53;100400.03;;;35.04;34.59
19553;BME280;9420;50.876;7.012;2022-09-09T11:49:39;100412.28;;;36.05;32.85
19553;BME280;9420;50.876;7.012;2022-09-09T11:52:11;100400.88;;;37.32;32.75
19553;BME280;9420;50.876;7.012;2022-09-09T11:54:48;100403.13;;;35.53;34.13
19553;BME280;9420;50.876;7.012;2022-09-09T11:57:32;100404.28;;;34.39;34.52
19553;BME280;9420;50.876;7.012;2022-09-09T11:59:59;100394.50;;;34.84;33.87
19553;BME280;9420;50.876;7.012;2022-09-09T12:02:28;100396.94;;;35.84;33.91
19553;BME280;9420;50.876;7.012;2022-09-09T12:05:06;100391.91;;;35.74;33.61
19553;BME280;9420;50.876;7.012;2022-09-09T12:07:38;100401.06;;;34.03;35.11
19553;BME280;9420;50.876;7.012;2022-09-09T12:10:25;100399.00;;;34.25;35.35
19553;BME280;9420;50.876;7.012;2022-09-09T12:12:53;100400.94;;;33.90;36.07
19553;BME280;9420;50.876;7.012;2022-09-09T12:15:25;100402.81;;;33.83;35.91
19553;BME280;9420;50.876;7.012;2022-09-09T12:17:56;100402.88;;;33.28;36.52
19553;BME280;9420;50.876;7.012;2022-09-09T12:20:34;100401.78;;;33.50;35.40
19553;BME280;9420;50.876;7.012;2022-09-09T12:23:25;100407.44;;;33.21;35.55
19553;BME280;9420;50.876;7.012;2022-09-09T12:26:05;100395.75;;;34.56;33.75
19553;BME280;9420;50.876;7.012;2022-09-09T12:28:56;100399.94;;;33.91;35.18
19553;BME280;9420;50.876;7.012;2022-09-09T12:31:36;100396.03;;;33.66;34.44
19553;BME280;9420;50.876;7.012;2022-09-09T12:34:14;100403.91;;;33.89;34.75
19553;BME280;9420;50.876;7.012;2022-09-09T12:36:49;100397.78;;;34.40;34.20
19553;BME280;9420;50.876;7.012;2022-09-09T12:39:28;100401.22;;;34.75;33.62
19553;BME280;9420;50.876;7.012;2022-09-09T12:41:56;100394.31;;;34.73;33.99
19553;BME280;9420;50.876;7.012;2022-09-09T12:44:24;100391.22;;;34.15;34.07
19553;BME280;9420;50.876;7.012;2022-09-09T12:46:55;100380.38;;;34.55;34.24
19553;BME280;9420;50.876;7.012;2022-09-09T12:49:30;100387.84;;;34.13;33.91
19553;BME280;9420;50.876;7.012;2022-09-09T12:52:04;100387.59;;;34.08;35.30
19553;BME280;9420;50.876;7.012;2022-09-09T12:54:35;100367.59;;;34.81;34.57
19553;BME280;9420;50.876;7.012;2022-09-09T12:57:04;100371.78;;;34.71;34.58
19553;BME280;9420;50.876;7.012;2022-09-09T12:59:37;100371.69;;;34.38;35.20
19553;BME280;9420;50.876;7.012;2022-09-09T13:02:18;100376.69;;;34.15;35.21
19553;BME280;9420;50.876;7.012;2022-09-09T13:04:46;100363.78;;;34.63;35.07
19553;BME280;9420;50.876;7.012;2022-09-09T13:07:15;100367.97;;;34.59;35.71
19553;BME280;9420;50.876;7.012;2022-09-09T13:09:43;100360.78;;;35.56;34.43
19553;BME280;9420;50.876;7.012;2022-09-09T13:12:15;100370.31;;;34.62;33.83
19553;BME280;9420;50.876;7.012;2022-09-09T13:14:46;100385.66;;;34.69;34.33
19553;BME280;9420;50.876;7.012;2022-09-09T13:17:21;100365.88;;;34.61;34.63
19553;BME280;9420;50.876;7.012;2022-09-09T13:19:50;100377.28;;;35.93;33.18
19553;BME280;9420;50.876;7.012;2022-09-09T13:22:28;100377.88;;;34.86;33.93
19553;BME280;9420;50.876;7.012;2022-09-09T13:25:17;100375.59;;;35.02;34.41
19553;BME280;9420;50.876;7.012;2022-09-09T13:27:58;100355.31;;;38.15;32.41
19553;BME280;9420;50.876;7.012;2022-09-09T13:30:30;100363.44;;;38.40;30.11
19553;BME280;9420;50.876;7.012;2022-09-09T13:33:21;100348.75;;;39.34;29.53
19553;BME280;9420;50.876;7.012;2022-09-09T13:35:52;100347.34;;;37.41;30.09
19553;BME280;9420;50.876;7.012;2022-09-09T13:38:23;100352.00;;;35.91;33.05